sensor_id;sensor_type;location;lat;lon;timestamp;P1;durP1;ratioP1;P2;durP2;ratioP2
22675;SDS011;12521;43.310;21.876;2022-09-20T00:04:04;6.0;;;5.0;;
22675;SDS011;12521;43.310;21.876;2022-09-20T00:08:41;6.0;;;5.0;;
22675;SDS011;12521;43.310;21.876;2022-09-20T00:13:20;6.0;;;5.0;;
22675;SDS011;12521;43.310;21.876;2022-09-20T00:17:57;6.0;;;5.0;;
22675;SDS011;12521;43.310;21.876;2022-09-20T00:22:33;6.0;;;5.0;;
22675;SDS011;12521;43.310;21.876;2022-09-20T00:27:10;6.0;;;5.0;;
22675;SDS011;12521;43.310;21.876;2022-09-20T00:31:46;6.0;;;5.0;;
22675;SDS011;12521;43.310;21.876;2022-09-20T00:36:23;6.0;;;5.0;;
22675;SDS011;12521;43.310;21.876;2022-09-20T00:41:00;6.0;;;5.0;;
22675;SDS011;12521;43.310;21.876;2022-09-20T00:45:37;6.0;;;5.0;;
22675;SDS011;12521;43.310;21.876;2022-09-20T00:50:19;6.0;;;5.0;;
22675;SDS011;12521;43.310;21.876;2022-09-20T00:55:16;7.0;;;6.0;;
22675;SDS011;12521;43.310;21.876;2022-09-20T00:59:58;7.0;;;6.0;;
22675;SDS011;12521;43.310;21.876;2022-09-20T01:04:37;8.0;;;6.0;;
22675;SDS011;12521;43.310;21.876;2022-09-20T01:09:21;8.0;;;6.0;;
22675;SDS011;12521;43.310;21.876;2022-09-20T01:13:58;8.0;;;7.0;;
22675;SDS011;12521;43.310;21.876;2022-09-20T01:18:35;8.0;;;7.0;;
22675;SDS011;12521;43.310;21.876;2022-09-20T01:23:25;9.0;;;8.0;;
22675;SDS011;12521;43.310;21.876;2022-09-20T01:28:44;9.0;;;8.0;;
22675;SDS011;12521;43.310;21.876;2022-09-20T01:34:07;9.0;;;8.0;;
22675;SDS011;12521;43.310;21.876;2022-09-20T01:39:09;9.0;;;8.0;;
22675;SDS011;12521;43.310;21.876;2022-09-20T01:44:37;9.0;;;8.0;;
22675;SDS011;12521;43.310;21.876;2022-09-20T01:50:00;9.0;;;8.0;;
22675;SDS011;12521;43.310;21.876;2022-09-20T01:58:06;8.0;;;7.0;;
22675;SDS011;12521;43.310;21.876;2022-09-20T02:05:05;7.0;;;6.0;;
22675;SDS011;12521;43.310;21.876;2022-09-20T02:10:54;7.0;;;6.0;;
22675;SDS011;12521;43.310;21.876;2022-09-20T02:16:00;7.0;;;6.0;;
22675;SDS011;12521;43.310;21.876;2022-09-20T02:21:32;7.0;;;6.0;;
22675;SDS011;12521;43.310;21.876;2022-09-20T02:26:56;7.0;;;6.0;;
22675;SDS011;12521;43.310;21.876;2022-09-20T02:32:18;8.0;;;6.0;;
22675;SDS011;12521;43.310;21.876;2022-09-20T02:37:59;8.0;;;6.0;;
22675;SDS011;12521;43.310;21.876;2022-09-20T02:43:25;8.0;;;6.0;;
22675;SDS011;12521;43.310;21.876;2022-09-20T02:48:29;8.0;;;6.0;;
22675;SDS011;12521;43.310;21.876;2022-09-20T02:53:39;8.0;;;6.0;;
22675;SDS011;12521;43.310;21.876;2022-09-20T02:58:45;8.0;;;6.0;;
22675;SDS011;12521;43.310;21.876;2022-09-20T03:03:53;9.0;;;7.0;;
22675;SDS011;12521;43.310;21.876;2022-09-20T03:09:10;9.0;;;7.0;;
22675;SDS011;12521;43.310;21.876;2022-09-20T03:14:15;8.0;;;6.0;;
22675;SDS011;12521;43.310;21.876;2022-09-20T03:19:12;8.0;;;6.0;;
22675;SDS011;12521;43.310;21.876;2022-09-20T03:24:30;7.0;;;5.0;;
22675;SDS011;12521;43.310;21.876;2022-09-20T03:30:15;7.0;;;5.0;;
22675;SDS011;12521;43.310;21.876;2022-09-20T03:35:57;8.0;;;6.0;;
22675;SDS011;12521;43.310;21.876;2022-09-20T03:41:46;9.0;;;6.0;;
22675;SDS011;12521;43.310;21.876;2022-09-20T03:46:56;9.0;;;6.0;;
22675;SDS011;12521;43.310;21.876;2022-09-20T03:52:54;8.0;;;6.0;;
22675;SDS011;12521;43.310;21.876;2022-09-20T03:58:29;8.0;;;6.0;;
22675;SDS011;12521;43.310;21.876;2022-09-20T04:03:56;8.0;;;6.0;;
22675;SDS011;12521;43.310;21.876;2022-09-20T04:10:10;8.0;;;6.0;;
22675;SDS011;12521;43.310;21.876;2022-09-20T04:15:30;8.0;;;6.0;;
22675;SDS011;12521;43.310;21.876;2022-09-20T04:20:44;7.0;;;6.0;;
22675;SDS011;12521;43.310;21.876;2022-09-20T04:25:46;7.0;;;6.0;;
22675;SDS011;12521;43.310;21.876;2022-09-20T04:30:28;7.0;;;6.0;;
22675;SDS011;12521;43.310;21.876;2022-09-20T04:35:17;8.0;;;6.0;;
22675;SDS011;12521;43.310;21.876;2022-09-20T04:40:46;8.0;;;6.0;;
22675;SDS011;12521;43.310;21.876;2022-09-20T04:47:29;8.0;;;6.0;;
22675;SDS011;12521;43.310;21.876;2022-09-20T04:53:43;9.0;;;6.0;;
22675;SDS011;12521;43.310;21.876;2022-09-20T05:00:10;9.0;;;6.0;;
22675;SDS011;12521;43.310;21.876;2022-09-20T05:05:03;10.0;;;7.0;;
22675;SDS011;12521;43.310;21.876;2022-09-20T05:14:36;9.0;;;7.0;;
22675;SDS011;12521;43.310;21.876;2022-09-20T05:20:42;9.0;;;7.0;;
22675;SDS011;12521;43.310;21.876;2022-09-20T05:26:19;8.0;;;7.0;;
22675;SDS011;12521;43.310;21.876;2022-09-20T05:31:53;9.0;;;8.0;;
22675;SDS011;12521;43.310;21.876;2022-09-20T05:37:00;9.0;;;8.0;;
22675;SDS011;12521;43.310;21.876;2022-09-20T05:42:15;10.0;;;8.0;;
22675;SDS011;12521;43.310;21.876;2022-09-20T05:47:23;10.0;;;8.0;;
22675;SDS011;12521;43.310;21.876;2022-09-20T05:52:37;8.0;;;8.0;;
22675;SDS011;12521;43.310;21.876;2022-09-20T05:58:17;8.0;;;8.0;;
22675;SDS011;12521;43.310;21.876;2022-09-20T06:03:54;7.0;;;7.0;;
22675;SDS011;12521;43.310;21.876;2022-09-20T06:09:10;7.0;;;7.0;;
22675;SDS011;12521;43.310;21.876;2022-09-20T06:15:13;10.0;;;8.0;;
22675;SDS011;12521;43.310;21.876;2022-09-20T06:20:27;10.0;;;8.0;;
22675;SDS011;12521;43.310;21.876;2022-09-20T06:25:46;12.0;;;8.0;;
22675;SDS011;12521;43.310;21.876;2022-09-20T06:30:43;12.0;;;8.0;;
22675;SDS011;12521;43.310;21.876;2022-09-20T06:35:31;14.0;;;10.0;;
22675;SDS011;12521;43.310;21.876;2022-09-20T06:40:32;14.0;;;10.0;;
22675;SDS011;12521;43.310;21.876;2022-09-20T06:45:25;15.0;;;11.0;;
22675;SDS011;12521;43.310;21.876;2022-09-20T06:50:02;15.0;;;11.0;;
22675;SDS011;12521;43.310;21.876;2022-09-20T06:54:50;14.0;;;10.0;;
22675;SDS011;12521;43.310;21.876;2022-09-20T06:59:31;14.0;;;10.0;;
22675;SDS011;12521;43.310;21.876;2022-09-20T07:04:07;14.0;;;9.0;;
22675;SDS011;12521;43.310;21.876;2022-09-20T07:08:44;14.0;;;9.0;;
22675;SDS011;12521;43.310;21.876;2022-09-20T07:13:21;15.0;;;10.0;;
22675;SDS011;12521;43.310;21.876;2022-09-20T07:17:58;15.0;;;10.0;;
22675;SDS011;12521;43.310;21.876;2022-09-20T07:22:36;16.0;;;11.0;;
22675;SDS011;12521;43.310;21.876;2022-09-20T07:27:12;16.0;;;11.0;;
22675;SDS011;12521;43.310;21.876;2022-09-20T07:31:48;15.0;;;10.0;;
22675;SDS011;12521;43.310;21.876;2022-09-20T07:36:24;15.0;;;10.0;;
22675;SDS011;12521;43.310;21.876;2022-09-20T07:41:01;14.0;;;10.0;;
22675;SDS011;12521;43.310;21.876;2022-09-20T07:45:37;14.0;;;10.0;;
22675;SDS011;12521;43.310;21.876;2022-09-20T07:50:14;14.0;;;10.0;;
22675;SDS011;12521;43.310;21.876;2022-09-20T07:54:50;15.0;;;10.0;;
22675;SDS011;12521;43.310;21.876;2022-09-20T07:59:27;15.0;;;10.0;;
22675;SDS011;12521;43.310;21.876;2022-09-20T08:04:03;16.0;;;11.0;;
22675;SDS011;12521;43.310;21.876;2022-09-20T08:08:42;16.0;;;11.0;;
22675;SDS011;12521;43.310;21.876;2022-09-20T08:13:19;14.0;;;10.0;;
22675;SDS011;12521;43.310;21.876;2022-09-20T08:17:56;14.0;;;10.0;;
22675;SDS011;12521;43.310;21.876;2022-09-20T08:22:32;13.0;;;9.0;;
22675;SDS011;12521;43.310;21.876;2022-09-20T08:27:08;13.0;;;9.0;;
22675;SDS011;12521;43.310;21.876;2022-09-20T08:31:45;12.0;;;9.0;;
22675;SDS011;12521;43.310;21.876;2022-09-20T08:36:23;12.0;;;9.0;;
22675;SDS011;12521;43.310;21.876;2022-09-20T08:41:02;11.0;;;9.0;;
22675;SDS011;12521;43.310;21.876;2022-09-20T08:45:58;11.0;;;9.0;;
22675;SDS011;12521;43.310;21.876;2022-09-20T08:50:53;11.0;;;9.0;;
22675;SDS011;12521;43.310;21.876;2022-09-20T08:55:30;12.0;;;8.0;;
22675;SDS011;12521;43.310;21.876;2022-09-20T09:00:10;12.0;;;8.0;;
22675;SDS011;12521;43.310;21.876;2022-09-20T09:05:05;12.0;;;8.0;;
22675;SDS011;12521;43.310;21.876;2022-09-20T09:10:12;12.0;;;8.0;;
22675;SDS011;12521;43.310;21.876;2022-09-20T09:14:50;10.0;;;8.0;;
22675;SDS011;12521;43.310;21.876;2022-09-20T09:19:42;10.0;;;8.0;;
22675;SDS011;12521;43.310;21.876;2022-09-20T09:24:28;9.0;;;7.0;;
22675;SDS011;12521;43.310;21.876;2022-09-20T09:29:07;9.0;;;7.0;;
22675;SDS011;12521;43.310;21.876;2022-09-20T09:33:58;10.0;;;8.0;;
22675;SDS011;12521;43.310;21.876;2022-09-20T09:38:35;10.0;;;8.0;;
22675;SDS011;12521;43.310;21.876;2022-09-20T09:43:21;11.0;;;8.0;;
22675;SDS011;12521;43.310;21.876;2022-09-20T09:48:15;11.0;;;8.0;;
22675;SDS011;12521;43.310;21.876;2022-09-20T09:53:07;12.0;;;7.0;;
22675;SDS011;12521;43.310;21.876;2022-09-20T09:57:57;12.0;;;7.0;;
22675;SDS011;12521;43.310;21.876;2022-09-20T10:03:25;13.0;;;6.0;;
22675;SDS011;12521;43.310;21.876;2022-09-20T10:08:36;13.0;;;6.0;;
22675;SDS011;12521;43.310;21.876;2022-09-20T10:13:50;8.0;;;4.0;;
22675;SDS011;12521;43.310;21.876;2022-09-20T10:19:14;8.0;;;4.0;;
22675;SDS011;12521;43.310;21.876;2022-09-20T10:24:28;4.0;;;3.0;;
22675;SDS011;12521;43.310;21.876;2022-09-20T10:29:39;4.0;;;3.0;;
22675;SDS011;12521;43.310;21.876;2022-09-20T10:34:49;9.0;;;4.0;;
22675;SDS011;12521;43.310;21.876;2022-09-20T10:40:01;9.0;;;4.0;;
22675;SDS011;12521;43.310;21.876;2022-09-20T10:45:07;14.0;;;6.0;;
22675;SDS011;12521;43.310;21.876;2022-09-20T10:50:06;14.0;;;6.0;;
22675;SDS011;12521;43.310;21.876;2022-09-20T10:55:20;8.0;;;4.0;;
22675;SDS011;12521;43.310;21.876;2022-09-20T11:00:20;8.0;;;4.0;;
22675;SDS011;12521;43.310;21.876;2022-09-20T11:05:25;3.0;;;3.0;;
22675;SDS011;12521;43.310;21.876;2022-09-20T11:10:47;3.0;;;3.0;;
22675;SDS011;12521;43.310;21.876;2022-09-20T11:15:43;5.0;;;4.0;;
22675;SDS011;12521;43.310;21.876;2022-09-20T11:20:41;5.0;;;4.0;;
22675;SDS011;12521;43.310;21.876;2022-09-20T11:25:47;7.0;;;4.0;;
22675;SDS011;12521;43.310;21.876;2022-09-20T11:30:48;7.0;;;4.0;;
22675;SDS011;12521;43.310;21.876;2022-09-20T11:35:59;5.0;;;4.0;;
22675;SDS011;12521;43.310;21.876;2022-09-20T11:41:12;3.0;;;3.0;;
22675;SDS011;12521;43.310;21.876;2022-09-20T11:46:06;3.0;;;3.0;;
22675;SDS011;12521;43.310;21.876;2022-09-20T11:51:20;3.0;;;3.0;;
22675;SDS011;12521;43.310;21.876;2022-09-20T11:59:33;4.0;;;3.0;;
22675;SDS011;12521;43.310;21.876;2022-09-20T12:04:26;5.0;;;3.0;;
22675;SDS011;12521;43.310;21.876;2022-09-20T12:09:21;5.0;;;3.0;;
22675;SDS011;12521;43.310;21.876;2022-09-20T12:14:16;4.0;;;2.0;;
22675;SDS011;12521;43.310;21.876;2022-09-20T12:19:04;4.0;;;2.0;;
22675;SDS011;12521;43.310;21.876;2022-09-20T12:29:08;3.0;;;2.0;;
22675;SDS011;12521;43.310;21.876;2022-09-20T12:34:56;4.0;;;2.0;;
22675;SDS011;12521;43.310;21.876;2022-09-20T12:39:34;4.0;;;2.0;;
22675;SDS011;12521;43.310;21.876;2022-09-20T12:44:29;5.0;;;3.0;;
22675;SDS011;12521;43.310;21.876;2022-09-20T12:49:20;5.0;;;3.0;;
22675;SDS011;12521;43.310;21.876;2022-09-20T12:54:22;4.0;;;2.0;;
22675;SDS011;12521;43.310;21.876;2022-09-20T12:59:00;4.0;;;2.0;;
22675;SDS011;12521;43.310;21.876;2022-09-20T13:05:28;3.0;;;2.0;;
22675;SDS011;12521;43.310;21.876;2022-09-20T13:10:34;3.0;;;2.0;;
22675;SDS011;12521;43.310;21.876;2022-09-20T13:15:50;3.0;;;2.0;;
22675;SDS011;12521;43.310;21.876;2022-09-20T13:20:35;3.0;;;2.0;;
22675;SDS011;12521;43.310;21.876;2022-09-20T13:25:15;3.0;;;2.0;;
22675;SDS011;12521;43.310;21.876;2022-09-20T13:30:07;3.0;;;2.0;;
22675;SDS011;12521;43.310;21.876;2022-09-20T13:35:04;4.0;;;2.0;;
22675;SDS011;12521;43.310;21.876;2022-09-20T13:39:52;4.0;;;2.0;;
22675;SDS011;12521;43.310;21.876;2022-09-20T13:44:30;4.0;;;3.0;;
22675;SDS011;12521;43.310;21.876;2022-09-20T13:49:12;4.0;;;3.0;;
22675;SDS011;12521;43.310;21.876;2022-09-20T13:54:15;4.0;;;2.0;;
22675;SDS011;12521;43.310;21.876;2022-09-20T13:59:09;4.0;;;2.0;;
22675;SDS011;12521;43.310;21.876;2022-09-20T14:03:50;3.0;;;2.0;;
22675;SDS011;12521;43.310;21.876;2022-09-20T14:08:48;3.0;;;2.0;;
22675;SDS011;12521;43.310;21.876;2022-09-20T14:13:28;3.0;;;2.0;;
22675;SDS011;12521;43.310;21.876;2022-09-20T14:18:23;3.0;;;2.0;;
22675;SDS011;12521;43.310;21.876;2022-09-20T14:23:00;3.0;;;3.0;;
22675;SDS011;12521;43.310;21.876;2022-09-20T14:27:38;3.0;;;3.0;;
22675;SDS011;12521;43.310;21.876;2022-09-20T14:32:22;4.0;;;4.0;;
22675;SDS011;12521;43.310;21.876;2022-09-20T14:37:31;4.0;;;4.0;;
22675;SDS011;12521;43.310;21.876;2022-09-20T14:42:25;5.0;;;4.0;;
22675;SDS011;12521;43.310;21.876;2022-09-20T14:47:24;5.0;;;4.0;;
22675;SDS011;12521;43.310;21.876;2022-09-20T14:52:25;6.0;;;4.0;;
22675;SDS011;12521;43.310;21.876;2022-09-20T14:57:14;6.0;;;4.0;;
22675;SDS011;12521;43.310;21.876;2022-09-20T15:01:56;7.0;;;4.0;;
22675;SDS011;12521;43.310;21.876;2022-09-20T15:06:50;7.0;;;4.0;;
22675;SDS011;12521;43.310;21.876;2022-09-20T15:11:30;9.0;;;4.0;;
22675;SDS011;12521;43.310;21.876;2022-09-20T15:16:08;9.0;;;4.0;;
22675;SDS011;12521;43.310;21.876;2022-09-20T15:20:54;9.0;;;4.0;;
22675;SDS011;12521;43.310;21.876;2022-09-20T15:25:30;11.0;;;4.0;;
22675;SDS011;12521;43.310;21.876;2022-09-20T15:30:08;11.0;;;4.0;;
22675;SDS011;12521;43.310;21.876;2022-09-20T15:34:53;10.0;;;5.0;;
22675;SDS011;12521;43.310;21.876;2022-09-20T15:39:30;10.0;;;5.0;;
22675;SDS011;12521;43.310;21.876;2022-09-20T15:44:07;10.0;;;6.0;;
22675;SDS011;12521;43.310;21.876;2022-09-20T15:48:44;10.0;;;6.0;;
22675;SDS011;12521;43.310;21.876;2022-09-20T15:53:22;8.0;;;5.0;;
22675;SDS011;12521;43.310;21.876;2022-09-20T15:57:59;8.0;;;5.0;;
22675;SDS011;12521;43.310;21.876;2022-09-20T16:02:35;6.0;;;4.0;;
22675;SDS011;12521;43.310;21.876;2022-09-20T16:07:12;6.0;;;4.0;;
22675;SDS011;12521;43.310;21.876;2022-09-20T16:11:49;7.0;;;4.0;;
22675;SDS011;12521;43.310;21.876;2022-09-20T16:16:27;7.0;;;4.0;;
22675;SDS011;12521;43.310;21.876;2022-09-20T16:21:11;7.0;;;4.0;;
22675;SDS011;12521;43.310;21.876;2022-09-20T16:25:54;8.0;;;5.0;;
22675;SDS011;12521;43.310;21.876;2022-09-20T16:30:31;8.0;;;5.0;;
22675;SDS011;12521;43.310;21.876;2022-09-20T16:35:08;10.0;;;7.0;;
22675;SDS011;12521;43.310;21.876;2022-09-20T16:39:45;10.0;;;7.0;;
22675;SDS011;12521;43.310;21.876;2022-09-20T16:44:22;11.0;;;9.0;;
22675;SDS011;12521;43.310;21.876;2022-09-20T16:49:00;11.0;;;9.0;;
22675;SDS011;12521;43.310;21.876;2022-09-20T16:53:40;14.0;;;12.0;;
22675;SDS011;12521;43.310;21.876;2022-09-20T16:58:17;14.0;;;12.0;;
22675;SDS011;12521;43.310;21.876;2022-09-20T17:02:54;17.0;;;14.0;;
22675;SDS011;12521;43.310;21.876;2022-09-20T17:07:31;17.0;;;14.0;;
22675;SDS011;12521;43.310;21.876;2022-09-20T17:12:08;18.0;;;15.0;;
22675;SDS011;12521;43.310;21.876;2022-09-20T17:16:45;18.0;;;15.0;;
22675;SDS011;12521;43.310;21.876;2022-09-20T17:21:24;18.0;;;15.0;;
22675;SDS011;12521;43.310;21.876;2022-09-20T17:26:05;20.0;;;16.0;;
22675;SDS011;12521;43.310;21.876;2022-09-20T17:30:49;20.0;;;16.0;;
22675;SDS011;12521;43.310;21.876;2022-09-20T17:35:26;20.0;;;17.0;;
22675;SDS011;12521;43.310;21.876;2022-09-20T17:40:03;20.0;;;17.0;;
22675;SDS011;12521;43.310;21.876;2022-09-20T17:44:44;19.0;;;18.0;;
22675;SDS011;12521;43.310;21.876;2022-09-20T17:49:21;19.0;;;18.0;;
22675;SDS011;12521;43.310;21.876;2022-09-20T17:53:59;24.0;;;22.0;;
22675;SDS011;12521;43.310;21.876;2022-09-20T17:58:37;24.0;;;22.0;;
22675;SDS011;12521;43.310;21.876;2022-09-20T18:03:17;28.0;;;25.0;;
22675;SDS011;12521;43.310;21.876;2022-09-20T18:07:53;28.0;;;25.0;;
22675;SDS011;12521;43.310;21.876;2022-09-20T18:12:30;26.0;;;23.0;;
22675;SDS011;12521;43.310;21.876;2022-09-20T18:17:07;26.0;;;23.0;;
22675;SDS011;12521;43.310;21.876;2022-09-20T18:21:43;23.0;;;21.0;;
22675;SDS011;12521;43.310;21.876;2022-09-20T18:26:21;23.0;;;21.0;;
22675;SDS011;12521;43.310;21.876;2022-09-20T18:31:06;23.0;;;21.0;;
22675;SDS011;12521;43.310;21.876;2022-09-20T18:35:43;27.0;;;24.0;;
22675;SDS011;12521;43.310;21.876;2022-09-20T18:40:19;27.0;;;24.0;;
22675;SDS011;12521;43.310;21.876;2022-09-20T18:44:56;31.0;;;26.0;;
22675;SDS011;12521;43.310;21.876;2022-09-20T18:49:32;31.0;;;26.0;;
22675;SDS011;12521;43.310;21.876;2022-09-20T18:54:09;29.0;;;26.0;;
22675;SDS011;12521;43.310;21.876;2022-09-20T18:58:48;29.0;;;26.0;;
22675;SDS011;12521;43.310;21.876;2022-09-20T19:03:37;27.0;;;25.0;;
22675;SDS011;12521;43.310;21.876;2022-09-20T19:09:27;27.0;;;25.0;;
22675;SDS011;12521;43.310;21.876;2022-09-20T19:14:56;27.0;;;26.0;;
22675;SDS011;12521;43.310;21.876;2022-09-20T19:20:55;27.0;;;26.0;;
22675;SDS011;12521;43.310;21.876;2022-09-20T19:26:21;27.0;;;26.0;;
22675;SDS011;12521;43.310;21.876;2022-09-20T19:31:09;27.0;;;26.0;;
22675;SDS011;12521;43.310;21.876;2022-09-20T19:36:05;26.0;;;24.0;;
22675;SDS011;12521;43.310;21.876;2022-09-20T19:40:49;26.0;;;24.0;;
22675;SDS011;12521;43.310;21.876;2022-09-20T19:46:33;26.0;;;21.0;;
22675;SDS011;12521;43.310;21.876;2022-09-20T19:52:09;24.0;;;20.0;;
22675;SDS011;12521;43.310;21.876;2022-09-20T19:56:53;24.0;;;20.0;;
22675;SDS011;12521;43.310;21.876;2022-09-20T20:01:44;22.0;;;19.0;;
22675;SDS011;12521;43.310;21.876;2022-09-20T20:06:24;22.0;;;19.0;;
22675;SDS011;12521;43.310;21.876;2022-09-20T20:11:34;22.0;;;19.0;;
22675;SDS011;12521;43.310;21.876;2022-09-20T20:16:54;20.0;;;16.0;;
22675;SDS011;12521;43.310;21.876;2022-09-20T20:22:22;17.0;;;13.0;;
22675;SDS011;12521;43.310;21.876;2022-09-20T20:28:35;17.0;;;13.0;;
22675;SDS011;12521;43.310;21.876;2022-09-20T20:33:13;21.0;;;18.0;;
22675;SDS011;12521;43.310;21.876;2022-09-20T20:37:53;21.0;;;18.0;;
22675;SDS011;12521;43.310;21.876;2022-09-20T20:42:30;25.0;;;24.0;;
22675;SDS011;12521;43.310;21.876;2022-09-20T20:47:06;25.0;;;24.0;;
22675;SDS011;12521;43.310;21.876;2022-09-20T20:51:43;26.0;;;24.0;;
22675;SDS011;12521;43.310;21.876;2022-09-20T20:56:22;26.0;;;24.0;;
22675;SDS011;12521;43.310;21.876;2022-09-20T21:01:07;26.0;;;24.0;;
22675;SDS011;12521;43.310;21.876;2022-09-20T21:05:54;27.0;;;24.0;;
22675;SDS011;12521;43.310;21.876;2022-09-20T21:10:30;27.0;;;24.0;;
22675;SDS011;12521;43.310;21.876;2022-09-20T21:15:08;32.0;;;26.0;;
22675;SDS011;12521;43.310;21.876;2022-09-20T21:19:46;32.0;;;26.0;;
22675;SDS011;12521;43.310;21.876;2022-09-20T21:24:22;36.0;;;27.0;;
22675;SDS011;12521;43.310;21.876;2022-09-20T21:29:00;36.0;;;27.0;;
22675;SDS011;12521;43.310;21.876;2022-09-20T21:33:45;28.0;;;22.0;;
22675;SDS011;12521;43.310;21.876;2022-09-20T21:38:23;28.0;;;22.0;;
22675;SDS011;12521;43.310;21.876;2022-09-20T21:43:00;19.0;;;17.0;;
22675;SDS011;12521;43.310;21.876;2022-09-20T21:47:36;19.0;;;17.0;;
22675;SDS011;12521;43.310;21.876;2022-09-20T21:52:13;22.0;;;19.0;;
22675;SDS011;12521;43.310;21.876;2022-09-20T21:56:50;22.0;;;19.0;;
22675;SDS011;12521;43.310;21.876;2022-09-20T22:01:28;22.0;;;19.0;;
22675;SDS011;12521;43.310;21.876;2022-09-20T22:06:14;24.0;;;21.0;;
22675;SDS011;12521;43.310;21.876;2022-09-20T22:11:01;24.0;;;21.0;;
22675;SDS011;12521;43.310;21.876;2022-09-20T22:15:41;22.0;;;18.0;;
22675;SDS011;12521;43.310;21.876;2022-09-20T22:20:18;22.0;;;18.0;;
22675;SDS011;12521;43.310;21.876;2022-09-20T22:24:55;19.0;;;16.0;;
22675;SDS011;12521;43.310;21.876;2022-09-20T22:29:31;19.0;;;16.0;;
22675;SDS011;12521;43.310;21.876;2022-09-20T22:34:08;16.0;;;14.0;;
22675;SDS011;12521;43.310;21.876;2022-09-20T22:38:55;16.0;;;14.0;;
22675;SDS011;12521;43.310;21.876;2022-09-20T22:43:33;14.0;;;13.0;;
22675;SDS011;12521;43.310;21.876;2022-09-20T22:48:12;14.0;;;13.0;;
22675;SDS011;12521;43.310;21.876;2022-09-20T22:52:49;13.0;;;12.0;;
22675;SDS011;12521;43.310;21.876;2022-09-20T22:57:26;13.0;;;12.0;;
22675;SDS011;12521;43.310;21.876;2022-09-20T23:02:02;12.0;;;10.0;;
22675;SDS011;12521;43.310;21.876;2022-09-20T23:06:40;12.0;;;10.0;;
22675;SDS011;12521;43.310;21.876;2022-09-20T23:11:24;12.0;;;10.0;;
22675;SDS011;12521;43.310;21.876;2022-09-20T23:16:12;12.0;;;10.0;;
22675;SDS011;12521;43.310;21.876;2022-09-20T23:21:02;12.0;;;10.0;;
22675;SDS011;12521;43.310;21.876;2022-09-20T23:25:39;12.0;;;10.0;;
22675;SDS011;12521;43.310;21.876;2022-09-20T23:30:16;12.0;;;10.0;;
22675;SDS011;12521;43.310;21.876;2022-09-20T23:34:53;12.0;;;10.0;;
22675;SDS011;12521;43.310;21.876;2022-09-20T23:39:30;12.0;;;10.0;;
22675;SDS011;12521;43.310;21.876;2022-09-20T23:44:07;12.0;;;9.0;;
22675;SDS011;12521;43.310;21.876;2022-09-20T23:48:45;12.0;;;9.0;;
22675;SDS011;12521;43.310;21.876;2022-09-20T23:53:23;12.0;;;10.0;;
22675;SDS011;12521;43.310;21.876;2022-09-20T23:58:00;12.0;;;10.0;;
